Time;durP1;ratioP1;P1;durP2;ratioP2;P2;SDS_P1;SDS_P2;PMS_P1;PMS_P2;Temp;Humidity;BMP_temperature;BMP_pressure;BME280_temperature;BME280_humidity;BME280_pressure;Samples;Min_cycle;Max_cycle;Signal;HPM_P1;HPM_P2
2023/05/12 00:00:22;;;;;;;8.68;4.65;;;;;;;;;;5065622;28;20043;-75
2023/05/12 00:02:48;;;;;;;6.95;5.25;;;;;;;;;;5066473;28;20021;-76
2023/05/12 00:05:14;;;;;;;8.30;5.30;;;;;;;;;;5067892;28;20032;-76
2023/05/12 00:07:40;;;;;;;10.82;5.30;;;;;;;;;;5065581;28;20489;-76
2023/05/12 00:10:06;;;;;;;7.50;4.63;;;;;;;;;;5082612;28;20051;-75
2023/05/12 00:12:32;;;;;;;7.03;4.40;;;;;;;;;;5064800;28;20503;-76
2023/05/12 00:14:59;;;;;;;7.18;4.40;;;;;;;;;;5066335;28;20359;-75
2023/05/12 00:17:26;;;;;;;9.98;4.75;;;;;;;;;;5060893;28;20416;-76
2023/05/12 00:19:52;;;;;;;6.65;5.03;;;;;;;;;;5066553;28;20028;-76
2023/05/12 00:22:22;;;;;;;6.72;4.90;;;;;;;;;;5067784;28;20032;-75
2023/05/12 00:24:51;;;;;;;6.63;4.95;;;;;;;;;;5058526;28;20031;-76
2023/05/12 00:27:17;;;;;;;6.55;4.75;;;;;;;;;;5064166;28;20024;-75
2023/05/12 00:29:43;;;;;;;7.45;4.55;;;;;;;;;;5065092;28;20021;-75
2023/05/12 00:32:09;;;;;;;7.43;5.20;;;;;;;;;;5066445;28;20150;-76
2023/05/12 00:34:36;;;;;;;8.95;4.63;;;;;;;;;;5063720;28;20024;-76
2023/05/12 00:37:02;;;;;;;7.15;4.90;;;;;;;;;;5065678;28;20035;-76
2023/05/12 00:39:28;;;;;;;7.25;4.72;;;;;;;;;;5064209;28;20029;-76
2023/05/12 00:41:58;;;;;;;6.68;4.05;;;;;;;;;;5068627;28;20032;-76
2023/05/12 00:44:24;;;;;;;10.02;4.97;;;;;;;;;;5065761;28;20017;-76
2023/05/12 00:46:50;;;;;;;9.85;4.13;;;;;;;;;;5061187;28;20029;-75
2023/05/12 00:49:16;;;;;;;7.63;4.60;;;;;;;;;;5067510;28;20433;-75
2023/05/12 00:51:42;;;;;;;8.27;4.57;;;;;;;;;;5066284;28;20028;-76
2023/05/12 00:54:09;;;;;;;6.55;4.50;;;;;;;;;;5067025;28;20085;-76
2023/05/12 00:56:39;;;;;;;5.95;3.90;;;;;;;;;;5063889;28;20490;-76
2023/05/12 00:59:06;;;;;;;5.95;3.75;;;;;;;;;;5067813;28;20043;-76
2023/05/12 01:01:33;;;;;;;5.75;4.00;;;;;;;;;;5054787;28;20036;-76
2023/05/12 01:04:00;;;;;;;4.00;3.60;;;;;;;;;;5062975;28;20028;-76
2023/05/12 01:06:31;;;;;;;5.88;4.30;;;;;;;;;;5062705;28;20099;-76
2023/05/12 01:08:58;;;;;;;8.65;4.88;;;;;;;;;;5062468;28;20032;-76
2023/05/12 01:11:24;;;;;;;7.13;4.13;;;;;;;;;;5063102;28;20032;-76
2023/05/12 01:13:50;;;;;;;8.95;4.93;;;;;;;;;;5065687;28;20176;-76
2023/05/12 01:16:20;;;;;;;7.65;4.40;;;;;;;;;;5061177;28;20029;-76
2023/05/12 01:18:52;;;;;;;6.40;4.70;;;;;;;;;;5066591;28;20474;-75
2023/05/12 01:21:19;;;;;;;5.72;4.30;;;;;;;;;;5065886;28;20119;-77
2023/05/12 01:23:48;;;;;;;6.80;4.53;;;;;;;;;;5073172;28;20071;-75
2023/05/12 01:26:14;;;;;;;7.28;5.53;;;;;;;;;;5056985;28;20028;-76
2023/05/12 01:28:41;;;;;;;6.95;4.88;;;;;;;;;;5066209;28;20078;-75
2023/05/12 01:31:10;;;;;;;7.82;4.40;;;;;;;;;;5066780;28;20042;-76
2023/05/12 01:33:37;;;;;;;4.60;4.00;;;;;;;;;;5059502;28;20024;-76
2023/05/12 01:36:03;;;;;;;7.20;4.10;;;;;;;;;;5064728;28;20425;-75
2023/05/12 01:38:29;;;;;;;6.05;4.45;;;;;;;;;;5059664;28;20051;-75
2023/05/12 01:40:55;;;;;;;6.75;4.32;;;;;;;;;;5055645;28;20020;-77
2023/05/12 01:43:21;;;;;;;6.75;4.32;;;;;;;;;;5066866;28;20025;-76
2023/05/12 01:45:47;;;;;;;5.75;3.85;;;;;;;;;;5061898;28;20032;-76
2023/05/12 01:48:13;;;;;;;5.13;4.25;;;;;;;;;;5065193;28;20482;-76
2023/05/12 01:50:41;;;;;;;4.35;3.67;;;;;;;;;;5063254;28;20025;-76
2023/05/12 01:53:09;;;;;;;6.47;4.10;;;;;;;;;;5053535;28;20050;-76
2023/05/12 01:55:35;;;;;;;5.75;4.22;;;;;;;;;;5065360;28;20028;-76
2023/05/12 01:58:01;;;;;;;8.27;4.55;;;;;;;;;;5066539;28;20028;-77
2023/05/12 02:00:31;;;;;;;7.68;4.47;;;;;;;;;;5065205;28;20112;-75
2023/05/12 02:02:57;;;;;;;7.20;4.50;;;;;;;;;;5066192;28;20465;-76
2023/05/12 02:05:24;;;;;;;5.43;4.18;;;;;;;;;;5066138;28;20469;-76
2023/05/12 02:07:50;;;;;;;7.97;4.63;;;;;;;;;;5057192;28;20031;-75
2023/05/12 02:10:19;;;;;;;6.10;4.40;;;;;;;;;;5064919;28;20065;-76
2023/05/12 02:12:48;;;;;;;6.63;4.13;;;;;;;;;;5065761;28;20406;-75
2023/05/12 02:15:14;;;;;;;4.97;3.70;;;;;;;;;;5052914;28;20483;-75
2023/05/12 02:17:40;;;;;;;5.85;3.53;;;;;;;;;;5054039;28;20028;-76
2023/05/12 02:20:07;;;;;;;5.15;4.10;;;;;;;;;;5062472;28;20066;-75
2023/05/12 02:22:34;;;;;;;4.32;3.47;;;;;;;;;;5060217;28;20087;-76
2023/05/12 02:25:00;;;;;;;4.25;3.72;;;;;;;;;;5062654;28;20052;-76
2023/05/12 02:27:26;;;;;;;6.57;3.95;;;;;;;;;;5059945;28;20952;-76
2023/05/12 02:29:52;;;;;;;5.28;3.33;;;;;;;;;;5062740;28;20490;-76
2023/05/12 02:32:19;;;;;;;5.13;3.60;;;;;;;;;;5066368;28;20033;-75
2023/05/12 02:34:46;;;;;;;3.83;3.42;;;;;;;;;;5067313;28;20033;-76
2023/05/12 02:37:12;;;;;;;3.58;2.92;;;;;;;;;;5067920;28;20024;-75
2023/05/12 02:39:38;;;;;;;4.10;3.35;;;;;;;;;;5064962;28;20032;-75
2023/05/12 02:42:04;;;;;;;4.10;3.28;;;;;;;;;;5063396;28;20028;-76
2023/05/12 02:44:30;;;;;;;5.07;3.60;;;;;;;;;;5067011;28;20037;-76
2023/05/12 02:46:56;;;;;;;4.25;3.08;;;;;;;;;;5066101;28;20033;-75
2023/05/12 02:49:22;;;;;;;3.83;3.20;;;;;;;;;;5059899;28;20028;-75
2023/05/12 02:51:49;;;;;;;4.32;3.38;;;;;;;;;;5068137;28;20039;-76
2023/05/12 02:54:15;;;;;;;4.43;3.58;;;;;;;;;;5064523;28;20048;-75
2023/05/12 02:56:41;;;;;;;4.40;3.58;;;;;;;;;;5061313;28;20036;-76
2023/05/12 02:59:07;;;;;;;4.72;3.65;;;;;;;;;;5070106;28;20398;-76
2023/05/12 03:01:33;;;;;;;4.78;3.65;;;;;;;;;;5063455;28;20075;-75
2023/05/12 03:03:59;;;;;;;4.28;3.10;;;;;;;;;;5065713;28;20024;-75
2023/05/12 03:06:25;;;;;;;5.30;3.83;;;;;;;;;;5066292;28;20047;-75
2023/05/12 03:08:53;;;;;;;5.28;3.63;;;;;;;;;;5069871;28;20028;-76
2023/05/12 03:11:19;;;;;;;5.82;3.65;;;;;;;;;;5068490;28;20653;-75
2023/05/12 03:13:46;;;;;;;4.90;3.47;;;;;;;;;;5069472;28;20029;-76
2023/05/12 03:16:12;;;;;;;4.55;3.67;;;;;;;;;;5071976;28;20025;-76
2023/05/12 03:18:38;;;;;;;3.97;2.92;;;;;;;;;;5066373;28;20103;-76
2023/05/12 03:21:04;;;;;;;3.67;3.30;;;;;;;;;;5064931;28;20032;-75
2023/05/12 03:23:30;;;;;;;4.55;3.08;;;;;;;;;;5067228;28;20068;-75
2023/05/12 03:25:57;;;;;;;3.83;3.35;;;;;;;;;;5065715;28;20043;-75
2023/05/12 03:28:23;;;;;;;7.22;3.95;;;;;;;;;;5068886;28;20013;-76
2023/05/12 03:30:49;;;;;;;3.67;3.05;;;;;;;;;;5069204;28;20458;-75
2023/05/12 03:33:16;;;;;;;4.53;3.45;;;;;;;;;;5069224;28;20028;-76
2023/05/12 03:35:42;;;;;;;4.05;3.42;;;;;;;;;;5063441;28;20070;-76
2023/05/12 03:38:08;;;;;;;3.95;3.33;;;;;;;;;;5064881;28;20040;-76
2023/05/12 03:40:35;;;;;;;4.15;3.28;;;;;;;;;;5062484;28;20036;-75
2023/05/12 03:43:01;;;;;;;4.28;3.30;;;;;;;;;;5066455;28;20027;-76
2023/05/12 03:45:27;;;;;;;4.22;3.40;;;;;;;;;;5069702;28;20031;-76
2023/05/12 03:47:54;;;;;;;3.92;3.53;;;;;;;;;;5067685;28;20020;-75
2023/05/12 03:50:20;;;;;;;7.25;4.75;;;;;;;;;;5064677;28;20191;-75
2023/05/12 03:52:47;;;;;;;4.80;3.10;;;;;;;;;;5062819;28;20035;-76
2023/05/12 03:55:13;;;;;;;6.45;3.90;;;;;;;;;;5068836;28;20028;-75
2023/05/12 03:57:39;;;;;;;26.13;6.15;;;;;;;;;;5065281;28;20020;-75
2023/05/12 04:00:05;;;;;;;15.70;4.68;;;;;;;;;;5072097;28;20413;-75
2023/05/12 04:02:31;;;;;;;5.82;3.90;;;;;;;;;;5069325;28;20173;-75
2023/05/12 04:04:57;;;;;;;9.23;3.95;;;;;;;;;;5062273;28;20012;-75
2023/05/12 04:07:23;;;;;;;8.93;4.15;;;;;;;;;;5068137;28;20021;-75
2023/05/12 04:09:50;;;;;;;57.92;7.93;;;;;;;;;;5061758;28;20028;-75
2023/05/12 04:12:16;;;;;;;11.48;5.05;;;;;;;;;;5068055;28;20304;-75
2023/05/12 04:14:42;;;;;;;6.28;4.45;;;;;;;;;;5069460;28;20031;-76
2023/05/12 04:17:09;;;;;;;9.63;4.25;;;;;;;;;;5068784;28;20495;-75
2023/05/12 04:19:35;;;;;;;8.75;4.22;;;;;;;;;;5068411;28;20537;-75
2023/05/12 04:22:02;;;;;;;6.65;4.85;;;;;;;;;;5065770;28;20049;-76
2023/05/12 04:24:30;;;;;;;6.28;4.43;;;;;;;;;;5063894;28;20021;-75
2023/05/12 04:26:57;;;;;;;6.05;4.00;;;;;;;;;;5066950;28;20034;-75
2023/05/12 04:29:23;;;;;;;6.47;4.47;;;;;;;;;;5067037;28;20473;-76
2023/05/12 04:31:49;;;;;;;9.05;4.45;;;;;;;;;;5065013;28;20035;-76
2023/05/12 04:34:15;;;;;;;5.05;4.00;;;;;;;;;;5068010;28;20385;-76
2023/05/12 04:36:41;;;;;;;10.15;5.25;;;;;;;;;;5066445;28;20162;-76
2023/05/12 04:39:08;;;;;;;7.63;4.70;;;;;;;;;;5063512;28;20043;-75
2023/05/12 04:41:35;;;;;;;7.63;4.60;;;;;;;;;;5068037;28;20027;-76
2023/05/12 04:44:01;;;;;;;5.93;4.13;;;;;;;;;;5062300;28;20021;-76
2023/05/12 04:46:27;;;;;;;9.18;3.92;;;;;;;;;;5071214;28;20044;-76
2023/05/12 04:48:53;;;;;;;5.95;4.30;;;;;;;;;;5068040;28;20103;-76
2023/05/12 04:51:19;;;;;;;35.85;5.78;;;;;;;;;;5069732;28;20028;-76
2023/05/12 04:53:45;;;;;;;8.05;4.82;;;;;;;;;;5068164;28;20032;-75
2023/05/12 04:56:11;;;;;;;9.20;4.10;;;;;;;;;;5064373;28;20099;-75
2023/05/12 04:58:37;;;;;;;4.75;4.10;;;;;;;;;;5060891;28;20024;-76
2023/05/12 05:01:03;;;;;;;7.50;4.70;;;;;;;;;;5066483;28;20474;-76
2023/05/12 05:03:30;;;;;;;6.38;4.13;;;;;;;;;;5066730;28;20031;-75
2023/05/12 05:05:56;;;;;;;6.10;4.63;;;;;;;;;;5061782;28;20024;-75
2023/05/12 05:08:22;;;;;;;5.40;4.03;;;;;;;;;;5061376;28;20074;-75
2023/05/12 05:10:48;;;;;;;6.53;4.60;;;;;;;;;;5066562;28;20098;-76
2023/05/12 05:13:15;;;;;;;7.70;4.90;;;;;;;;;;5067018;28;20028;-75
2023/05/12 05:15:48;;;;;;;5.45;4.22;;;;;;;;;;5069395;28;20051;-75
2023/05/12 05:18:14;;;;;;;5.82;4.32;;;;;;;;;;5066779;28;20017;-76
2023/05/12 05:20:41;;;;;;;7.32;4.40;;;;;;;;;;5068210;28;20082;-75
2023/05/12 05:23:07;;;;;;;7.80;3.97;;;;;;;;;;5078347;28;20040;-75
2023/05/12 05:25:34;;;;;;;6.95;4.45;;;;;;;;;;5066501;28;20078;-75
2023/05/12 05:28:00;;;;;;;6.03;4.43;;;;;;;;;;5061487;28;20024;-76
2023/05/12 05:30:26;;;;;;;4.80;4.28;;;;;;;;;;5045347;28;20877;-75
2023/05/12 05:32:52;;;;;;;5.40;4.43;;;;;;;;;;5061514;28;20032;-75
2023/05/12 05:35:22;;;;;;;5.97;4.07;;;;;;;;;;5064384;28;20043;-75
2023/05/12 05:37:49;;;;;;;6.63;4.43;;;;;;;;;;5064001;28;20060;-75
2023/05/12 05:40:16;;;;;;;5.53;4.25;;;;;;;;;;5062017;28;20036;-75
2023/05/12 05:42:42;;;;;;;6.63;4.40;;;;;;;;;;5064529;28;20044;-75
2023/05/12 05:45:08;;;;;;;6.85;4.20;;;;;;;;;;5063611;28;20112;-75
2023/05/12 05:47:36;;;;;;;7.88;3.75;;;;;;;;;;5064411;28;20036;-76
2023/05/12 05:50:02;;;;;;;5.00;3.70;;;;;;;;;;5067323;28;20029;-75
2023/05/12 05:52:32;;;;;;;6.40;3.80;;;;;;;;;;5064355;28;20036;-76
2023/05/12 05:54:59;;;;;;;4.90;3.60;;;;;;;;;;5061132;28;20036;-76
2023/05/12 05:57:27;;;;;;;5.32;3.58;;;;;;;;;;5062411;28;20080;-77
2023/05/12 05:59:53;;;;;;;5.65;3.55;;;;;;;;;;5059808;28;20485;-76
2023/05/12 06:02:22;;;;;;;6.45;4.18;;;;;;;;;;5060259;28;20449;-76
2023/05/12 06:04:48;;;;;;;5.93;3.58;;;;;;;;;;5067876;28;20141;-75
2023/05/12 06:07:14;;;;;;;4.80;3.80;;;;;;;;;;5061247;28;20033;-76
2023/05/12 06:09:40;;;;;;;5.65;4.22;;;;;;;;;;5059623;28;20434;-76
2023/05/12 06:12:06;;;;;;;4.85;3.55;;;;;;;;;;5056996;28;20033;-76
2023/05/12 06:14:32;;;;;;;6.32;3.30;;;;;;;;;;5057799;28;20078;-76
2023/05/12 06:16:58;;;;;;;7.30;4.30;;;;;;;;;;5061486;28;20029;-76
2023/05/12 06:19:24;;;;;;;4.93;3.92;;;;;;;;;;5061430;28;20081;-75
2023/05/12 06:21:51;;;;;;;6.63;3.75;;;;;;;;;;5060213;28;20438;-76
2023/05/12 06:24:17;;;;;;;4.70;3.83;;;;;;;;;;5060880;28;20025;-76
2023/05/12 06:26:43;;;;;;;5.85;3.78;;;;;;;;;;5056614;28;20608;-76
2023/05/12 06:29:09;;;;;;;4.75;4.13;;;;;;;;;;5061664;28;20035;-76
2023/05/12 06:31:36;;;;;;;6.63;3.95;;;;;;;;;;5064886;28;20085;-75
2023/05/12 06:34:03;;;;;;;5.20;4.05;;;;;;;;;;5062711;28;20043;-76
2023/05/12 06:36:29;;;;;;;6.30;4.07;;;;;;;;;;5065574;28;20055;-75
2023/05/12 06:38:56;;;;;;;6.93;3.72;;;;;;;;;;5062829;28;20028;-75
2023/05/12 06:41:23;;;;;;;4.72;3.70;;;;;;;;;;5058916;28;20032;-76
2023/05/12 06:43:50;;;;;;;7.25;4.45;;;;;;;;;;5061639;28;20029;-75
2023/05/12 06:46:16;;;;;;;5.07;3.85;;;;;;;;;;5059692;28;20537;-75
2023/05/12 06:48:42;;;;;;;5.20;3.67;;;;;;;;;;5058601;28;20077;-75
2023/05/12 06:51:08;;;;;;;4.93;4.05;;;;;;;;;;5063214;28;20486;-75
2023/05/12 06:53:36;;;;;;;6.15;3.90;;;;;;;;;;5056050;28;21272;-76
2023/05/12 06:56:05;;;;;;;5.18;3.90;;;;;;;;;;5061441;28;20059;-76
2023/05/12 06:58:31;;;;;;;4.90;3.90;;;;;;;;;;5059055;28;20037;-76
2023/05/12 07:00:58;;;;;;;4.90;4.07;;;;;;;;;;5059236;28;20071;-76
2023/05/12 07:03:24;;;;;;;4.55;4.03;;;;;;;;;;5059334;28;20035;-76
2023/05/12 07:05:50;;;;;;;5.28;3.50;;;;;;;;;;5056676;28;20244;-77
2023/05/12 07:08:17;;;;;;;7.90;4.20;;;;;;;;;;5061026;28;20104;-76
2023/05/12 07:10:43;;;;;;;5.10;3.67;;;;;;;;;;5057702;28;20024;-77
2023/05/12 07:13:09;;;;;;;5.97;3.35;;;;;;;;;;5057709;28;20150;-77
2023/05/12 07:15:35;;;;;;;7.13;3.80;;;;;;;;;;5061535;28;20089;-76
2023/05/12 07:18:01;;;;;;;5.45;3.85;;;;;;;;;;5077149;28;20691;-76
2023/05/12 07:20:28;;;;;;;7.55;3.85;;;;;;;;;;5053810;28;20178;-76
2023/05/12 07:22:55;;;;;;;7.10;4.22;;;;;;;;;;5068503;28;20096;-76
2023/05/12 07:25:21;;;;;;;7.68;4.20;;;;;;;;;;5066361;28;20027;-76
2023/05/12 07:27:48;;;;;;;9.98;4.50;;;;;;;;;;5063055;28;20036;-77
2023/05/12 07:30:14;;;;;;;6.15;4.20;;;;;;;;;;5065030;28;20077;-76
2023/05/12 07:32:40;;;;;;;4.47;3.83;;;;;;;;;;5061625;28;20032;-76
2023/05/12 07:35:06;;;;;;;7.28;3.65;;;;;;;;;;5057929;28;20044;-77
2023/05/12 07:37:32;;;;;;;7.80;5.00;;;;;;;;;;5054111;28;20483;-76
2023/05/12 07:39:58;;;;;;;5.05;4.20;;;;;;;;;;5063117;28;20058;-76
2023/05/12 07:42:24;;;;;;;7.50;4.20;;;;;;;;;;5061572;28;20279;-77
2023/05/12 07:44:50;;;;;;;5.75;4.38;;;;;;;;;;5076412;28;20032;-78
2023/05/12 07:47:17;;;;;;;9.20;4.13;;;;;;;;;;5057245;28;20074;-77
2023/05/12 07:49:43;;;;;;;5.30;4.15;;;;;;;;;;5059175;28;20024;-77
2023/05/12 07:52:09;;;;;;;7.50;4.00;;;;;;;;;;5056851;28;20028;-77
2023/05/12 07:54:35;;;;;;;8.75;3.97;;;;;;;;;;5058355;28;20025;-76
2023/05/12 07:57:01;;;;;;;8.93;4.15;;;;;;;;;;5056912;28;20036;-76
2023/05/12 07:59:27;;;;;;;6.53;4.00;;;;;;;;;;5056668;28;20595;-77
2023/05/12 08:01:53;;;;;;;6.93;3.95;;;;;;;;;;5060899;28;20039;-76
2023/05/12 08:04:19;;;;;;;5.88;4.20;;;;;;;;;;5067504;28;20035;-76
2023/05/12 08:06:45;;;;;;;8.38;4.20;;;;;;;;;;5064143;28;21128;-76
2023/05/12 08:09:14;;;;;;;6.75;4.38;;;;;;;;;;5049207;28;20381;-78
2023/05/12 08:11:43;;;;;;;8.10;4.10;;;;;;;;;;5059261;28;20028;-77
2023/05/12 08:14:10;;;;;;;7.75;3.90;;;;;;;;;;5062191;28;20039;-77
2023/05/12 08:16:36;;;;;;;7.07;4.10;;;;;;;;;;5063276;28;20378;-77
2023/05/12 08:19:02;;;;;;;8.95;3.30;;;;;;;;;;5066489;28;20033;-77
2023/05/12 08:21:32;;;;;;;6.93;4.60;;;;;;;;;;5063750;28;20036;-76
2023/05/12 08:23:58;;;;;;;5.97;4.05;;;;;;;;;;5059032;28;20131;-77
2023/05/12 08:26:24;;;;;;;5.78;3.25;;;;;;;;;;5059312;28;20025;-77
2023/05/12 08:28:50;;;;;;;5.43;3.83;;;;;;;;;;5061891;28;20036;-77
2023/05/12 08:31:16;;;;;;;4.85;3.40;;;;;;;;;;5078422;28;20467;-76
2023/05/12 08:33:42;;;;;;;8.15;3.80;;;;;;;;;;5062731;28;20029;-77
2023/05/12 08:36:08;;;;;;;7.22;3.85;;;;;;;;;;5064127;28;20037;-77
2023/05/12 08:38:35;;;;;;;5.28;3.50;;;;;;;;;;5055047;28;20051;-77
2023/05/12 08:41:22;;;;;;;5.90;3.58;;;;;;;;;;5059657;28;20024;-76
2023/05/12 08:43:50;;;;;;;8.32;3.42;;;;;;;;;;5049811;28;20033;-77
2023/05/12 08:46:16;;;;;;;5.30;3.47;;;;;;;;;;5057720;28;20384;-78
2023/05/12 08:48:45;;;;;;;5.30;3.92;;;;;;;;;;5058957;28;20025;-77
2023/05/12 08:51:12;;;;;;;6.82;3.70;;;;;;;;;;5057731;28;20028;-76
2023/05/12 08:53:39;;;;;;;6.70;3.70;;;;;;;;;;5057986;28;20036;-77
2023/05/12 08:56:06;;;;;;;4.95;3.85;;;;;;;;;;5058814;28;20107;-77
2023/05/12 08:58:32;;;;;;;18.90;3.97;;;;;;;;;;5056551;28;20081;-77
2023/05/12 09:01:03;;;;;;;4.75;4.35;;;;;;;;;;5059296;28;20041;-79
2023/05/12 09:03:30;;;;;;;4.57;3.42;;;;;;;;;;5060602;28;20036;-78
2023/05/12 09:06:00;;;;;;;4.63;3.53;;;;;;;;;;5053240;28;20033;-78
2023/05/12 09:08:27;;;;;;;5.88;3.47;;;;;;;;;;5054428;28;20020;-79
2023/05/12 09:10:55;;;;;;;6.07;3.70;;;;;;;;;;5049865;28;20024;-78
2023/05/12 09:13:28;;;;;;;9.07;4.28;;;;;;;;;;5057083;28;20033;-78
2023/05/12 09:15:57;;;;;;;6.00;3.22;;;;;;;;;;5058240;28;20259;-77
2023/05/12 09:18:23;;;;;;;9.45;3.47;;;;;;;;;;5061130;28;20020;-77
2023/05/12 09:20:49;;;;;;;5.80;3.78;;;;;;;;;;5059122;28;20024;-77
2023/05/12 09:23:16;;;;;;;6.97;3.88;;;;;;;;;;5080324;28;20044;-76
2023/05/12 09:25:42;;;;;;;6.95;3.63;;;;;;;;;;5063115;28;20028;-77
2023/05/12 09:28:12;;;;;;;5.57;3.40;;;;;;;;;;5058007;28;20099;-77
2023/05/12 09:30:41;;;;;;;7.90;3.70;;;;;;;;;;5064934;28;20035;-77
2023/05/12 09:33:08;;;;;;;3.95;3.40;;;;;;;;;;5067104;28;20033;-76
2023/05/12 09:35:40;;;;;;;7.40;3.83;;;;;;;;;;5062960;28;20086;-77
2023/05/12 09:38:09;;;;;;;6.07;3.80;;;;;;;;;;5063556;28;20037;-76
2023/05/12 09:40:36;;;;;;;4.55;3.70;;;;;;;;;;5058016;28;20097;-77
2023/05/12 09:43:02;;;;;;;7.50;4.22;;;;;;;;;;5058532;28;20043;-78
2023/05/12 09:45:28;;;;;;;6.35;4.13;;;;;;;;;;5070124;28;20410;-77
2023/05/12 09:47:56;;;;;;;4.95;3.55;;;;;;;;;;5059715;28;20036;-79
2023/05/12 09:50:22;;;;;;;5.60;3.33;;;;;;;;;;5078665;28;20304;-77
2023/05/12 09:52:50;;;;;;;6.10;3.40;;;;;;;;;;5062187;28;20128;-76
2023/05/12 09:55:17;;;;;;;5.18;4.03;;;;;;;;;;5061884;28;20066;-78
2023/05/12 09:57:50;;;;;;;5.30;3.75;;;;;;;;;;5061819;28;20103;-76
2023/05/12 10:00:17;;;;;;;4.93;3.55;;;;;;;;;;5063354;28;20043;-77
2023/05/12 10:02:44;;;;;;;4.13;3.00;;;;;;;;;;5061218;28;20036;-77
2023/05/12 10:05:19;;;;;;;9.73;3.42;;;;;;;;;;5061840;28;20017;-77
2023/05/12 10:07:45;;;;;;;;;;;;;;;;;;5057580;28;20572;-78
2023/05/12 10:10:14;;;;;;;6.38;3.13;;;;;;;;;;5060328;28;19919;-77
2023/05/12 10:12:40;;;;;;;3.63;2.90;;;;;;;;;;5058176;28;20078;-79
2023/05/12 10:15:08;;;;;;;5.18;3.22;;;;;;;;;;5059411;28;20398;-78
2023/05/12 10:17:34;;;;;;;3.55;2.88;;;;;;;;;;5061519;28;20028;-78
2023/05/12 10:20:02;;;;;;;5.20;3.45;;;;;;;;;;5052852;28;20164;-78
2023/05/12 10:22:30;;;;;;;6.40;3.75;;;;;;;;;;5056879;28;20034;-78
2023/05/12 10:24:56;;;;;;;7.13;3.50;;;;;;;;;;5063238;28;20039;-78
2023/05/12 10:27:23;;;;;;;8.43;4.00;;;;;;;;;;5063974;28;20075;-78
2023/05/12 10:29:49;;;;;;;4.03;3.25;;;;;;;;;;5062753;28;20475;-78
2023/05/12 10:32:16;;;;;;;5.10;3.60;;;;;;;;;;5081355;28;20075;-80
2023/05/12 10:34:43;;;;;;;4.47;3.08;;;;;;;;;;5059171;28;20467;-78
2023/05/12 10:37:10;;;;;;;5.07;3.05;;;;;;;;;;5059116;28;20135;-77
2023/05/12 10:39:37;;;;;;;3.40;3.10;;;;;;;;;;5062240;28;20589;-77
2023/05/12 10:42:09;;;;;;;4.70;3.45;;;;;;;;;;5059092;28;20033;-78
2023/05/12 10:44:36;;;;;;;7.15;3.50;;;;;;;;;;5058676;28;20074;-77
2023/05/12 10:47:12;;;;;;;3.70;3.30;;;;;;;;;;5060389;28;20025;-77
2023/05/12 10:49:41;;;;;;;5.40;3.60;;;;;;;;;;5060420;28;20073;-77
2023/05/12 10:52:11;;;;;;;4.32;3.65;;;;;;;;;;5056299;28;20263;-77
2023/05/12 10:54:43;;;;;;;4.07;3.38;;;;;;;;;;5059579;28;20028;-77
2023/05/12 10:57:15;;;;;;;6.90;3.30;;;;;;;;;;5061738;28;20035;-77
2023/05/12 10:59:48;;;;;;;6.63;3.60;;;;;;;;;;5062589;28;20099;-78
2023/05/12 11:02:16;;;;;;;5.85;3.20;;;;;;;;;;5063810;28;20039;-77
2023/05/12 11:04:53;;;;;;;5.75;3.60;;;;;;;;;;5066327;28;20102;-77
2023/05/12 11:07:25;;;;;;;3.50;3.10;;;;;;;;;;5067214;28;20097;-77
2023/05/12 11:09:52;;;;;;;6.10;3.47;;;;;;;;;;5065704;28;20463;-77
2023/05/12 11:12:18;;;;;;;6.43;3.42;;;;;;;;;;5064280;28;20040;-77
2023/05/12 11:14:45;;;;;;;4.97;3.08;;;;;;;;;;5066552;28;20470;-77
2023/05/12 11:17:12;;;;;;;5.72;3.63;;;;;;;;;;5069770;28;20492;-77
2023/05/12 11:19:39;;;;;;;3.00;2.70;;;;;;;;;;5063742;28;20084;-77
2023/05/12 11:22:09;;;;;;;4.43;3.10;;;;;;;;;;5067900;28;20113;-76
2023/05/12 11:24:39;;;;;;;5.28;3.10;;;;;;;;;;5062799;28;20035;-76
2023/05/12 11:27:05;;;;;;;5.00;3.67;;;;;;;;;;5063029;28;20035;-78
2023/05/12 11:29:32;;;;;;;5.50;3.42;;;;;;;;;;5064501;28;20116;-78
2023/05/12 11:32:01;;;;;;;3.78;3.00;;;;;;;;;;5063850;28;20039;-77
2023/05/12 11:34:27;;;;;;;3.92;3.30;;;;;;;;;;5065162;28;20048;-77
2023/05/12 11:36:54;;;;;;;5.97;3.08;;;;;;;;;;5059438;28;20676;-77
2023/05/12 11:39:32;;;;;;;3.38;3.00;;;;;;;;;;5062939;28;20067;-77
2023/05/12 11:42:03;;;;;;;4.75;3.15;;;;;;;;;;5060580;28;20036;-76
2023/05/12 11:44:30;;;;;;;3.58;2.80;;;;;;;;;;5059478;28;20908;-77
2023/05/12 11:47:22;;;;;;;4.05;3.35;;;;;;;;;;5061972;28;20395;-79
2023/05/12 11:49:53;;;;;;;3.03;2.72;;;;;;;;;;5058400;28;20079;-78
2023/05/12 11:52:20;;;;;;;2.92;2.63;;;;;;;;;;5077012;28;20032;-78
2023/05/12 11:54:50;;;;;;;4.07;3.00;;;;;;;;;;5063957;28;20144;-77
2023/05/12 11:57:27;;;;;;;3.22;2.90;;;;;;;;;;5089706;28;20059;-78
2023/05/12 12:00:00;;;;;;;3.50;3.20;;;;;;;;;;5060638;28;20024;-78
2023/05/12 12:02:26;;;;;;;4.50;2.90;;;;;;;;;;5059614;28;20119;-78
2023/05/12 12:04:53;;;;;;;4.60;2.83;;;;;;;;;;5066491;28;20029;-78
2023/05/12 12:07:32;;;;;;;6.53;3.05;;;;;;;;;;5061671;28;20321;-78
2023/05/12 12:10:10;;;;;;;5.57;3.15;;;;;;;;;;5063344;28;20544;-78
2023/05/12 12:12:36;;;;;;;5.35;2.72;;;;;;;;;;5063888;28;20086;-78
2023/05/12 12:15:03;;;;;;;4.28;2.97;;;;;;;;;;5063121;28;20036;-78
2023/05/12 12:17:30;;;;;;;4.55;3.00;;;;;;;;;;5060142;28;20633;-78
2023/05/12 12:19:56;;;;;;;3.10;2.80;;;;;;;;;;5058513;28;20994;-78
2023/05/12 12:22:22;;;;;;;3.90;3.10;;;;;;;;;;5063293;28;20037;-78
2023/05/12 12:24:48;;;;;;;3.38;2.60;;;;;;;;;;5064828;28;20086;-80
2023/05/12 12:27:14;;;;;;;3.03;2.72;;;;;;;;;;5068337;28;20021;-78
2023/05/12 12:29:51;;;;;;;4.32;2.75;;;;;;;;;;5064396;28;20442;-79
2023/05/12 12:32:17;;;;;;;3.38;2.78;;;;;;;;;;5049340;28;20746;-77
2023/05/12 12:34:47;;;;;;;7.03;3.28;;;;;;;;;;5055985;28;20700;-78
2023/05/12 12:37:13;;;;;;;4.00;3.17;;;;;;;;;;5062259;28;20119;-76
2023/05/12 12:39:40;;;;;;;5.88;2.88;;;;;;;;;;5058050;28;20042;-76
2023/05/12 12:42:06;;;;;;;3.90;2.80;;;;;;;;;;5057033;28;20037;-78
2023/05/12 12:44:33;;;;;;;3.63;2.78;;;;;;;;;;5061854;28;20021;-78
2023/05/12 12:46:59;;;;;;;3.15;2.85;;;;;;;;;;5056596;28;20025;-78
2023/05/12 12:49:25;;;;;;;6.82;2.80;;;;;;;;;;5058152;28;20040;-78
2023/05/12 12:51:51;;;;;;;5.28;3.20;;;;;;;;;;5061156;28;20029;-79
2023/05/12 12:54:18;;;;;;;4.68;2.83;;;;;;;;;;5052279;28;20056;-79
2023/05/12 12:56:44;;;;;;;3.55;2.60;;;;;;;;;;5057860;28;20024;-81
2023/05/12 12:59:10;;;;;;;2.88;2.58;;;;;;;;;;5060260;28;20109;-77
2023/05/12 13:01:36;;;;;;;3.20;2.80;;;;;;;;;;5051996;28;20165;-78
2023/05/12 13:04:03;;;;;;;3.42;2.63;;;;;;;;;;5062882;28;20083;-77
2023/05/12 13:06:34;;;;;;;6.28;2.35;;;;;;;;;;5059722;28;20119;-78
2023/05/12 13:09:01;;;;;;;4.32;2.40;;;;;;;;;;5056898;28;20389;-80
2023/05/12 13:11:27;;;;;;;3.63;2.55;;;;;;;;;;5058764;28;20512;-79
2023/05/12 13:13:53;;;;;;;3.40;3.05;;;;;;;;;;5057806;28;20032;-79
2023/05/12 13:16:20;;;;;;;5.55;2.47;;;;;;;;;;5059254;28;20588;-80
2023/05/12 13:18:46;;;;;;;4.25;2.35;;;;;;;;;;5056416;28;20028;-80
2023/05/12 13:21:12;;;;;;;3.70;2.40;;;;;;;;;;5050350;28;20025;-78
2023/05/12 13:23:38;;;;;;;3.03;2.70;;;;;;;;;;5055086;28;20465;-78
2023/05/12 13:26:04;;;;;;;3.95;2.80;;;;;;;;;;5053325;28;20493;-77
2023/05/12 13:28:30;;;;;;;4.85;2.60;;;;;;;;;;5055766;28;20025;-78
2023/05/12 13:30:56;;;;;;;6.10;2.90;;;;;;;;;;5062267;28;20044;-77
2023/05/12 13:33:22;;;;;;;3.25;2.95;;;;;;;;;;5060363;28;20481;-79
2023/05/12 13:35:49;;;;;;;3.85;2.65;;;;;;;;;;5056482;28;20052;-78
2023/05/12 13:38:16;;;;;;;2.60;2.40;;;;;;;;;;5060226;28;20147;-78
2023/05/12 13:40:42;;;;;;;2.67;2.45;;;;;;;;;;5053215;28;20033;-78
2023/05/12 13:43:08;;;;;;;4.18;2.70;;;;;;;;;;5053296;28;20032;-77
2023/05/12 13:45:34;;;;;;;3.25;2.40;;;;;;;;;;5057111;28;20437;-78
2023/05/12 13:48:00;;;;;;;3.55;2.42;;;;;;;;;;5058865;28;20055;-78
2023/05/12 13:50:26;;;;;;;5.15;2.80;;;;;;;;;;5060227;28;20029;-78
2023/05/12 13:52:52;;;;;;;3.47;2.75;;;;;;;;;;5056859;28;20364;-79
2023/05/12 13:55:18;;;;;;;3.65;2.17;;;;;;;;;;5053776;28;20024;-80
2023/05/12 13:57:44;;;;;;;3.05;2.65;;;;;;;;;;5054154;28;20035;-78
2023/05/12 14:00:12;;;;;;;2.75;2.20;;;;;;;;;;5055964;28;20025;-78
2023/05/12 14:02:38;;;;;;;3.75;2.33;;;;;;;;;;5056659;28;20158;-78
2023/05/12 14:05:04;;;;;;;3.95;2.38;;;;;;;;;;5057663;28;20027;-79
2023/05/12 14:07:30;;;;;;;4.22;2.67;;;;;;;;;;5057767;28;20409;-78
2023/05/12 14:09:57;;;;;;;2.83;2.42;;;;;;;;;;5054506;28;20033;-78
2023/05/12 14:12:23;;;;;;;5.00;2.45;;;;;;;;;;5055060;28;20502;-79
2023/05/12 14:14:49;;;;;;;3.50;2.20;;;;;;;;;;5051246;28;20029;-80
2023/05/12 14:17:16;;;;;;;3.13;2.33;;;;;;;;;;5058288;28;20135;-79
2023/05/12 14:19:42;;;;;;;3.00;2.20;;;;;;;;;;5056001;28;20032;-78
2023/05/12 14:22:08;;;;;;;3.35;2.20;;;;;;;;;;5059453;28;20525;-78
2023/05/12 14:24:35;;;;;;;3.30;2.50;;;;;;;;;;5059460;28;20041;-79
2023/05/12 14:27:01;;;;;;;2.42;2.10;;;;;;;;;;5056982;28;20025;-79
2023/05/12 14:29:27;;;;;;;2.65;2.42;;;;;;;;;;5054435;28;20051;-78
2023/05/12 14:31:54;;;;;;;3.35;2.25;;;;;;;;;;5053440;28;20037;-78
2023/05/12 14:34:20;;;;;;;3.70;2.50;;;;;;;;;;5053352;28;20027;-80
2023/05/12 14:36:46;;;;;;;6.30;2.97;;;;;;;;;;5054097;28;20581;-79
2023/05/12 14:39:12;;;;;;;2.58;2.30;;;;;;;;;;5055783;28;20020;-79
2023/05/12 14:41:38;;;;;;;4.68;2.30;;;;;;;;;;5060068;28;20588;-79